sensor_id;sensor_type;location;lat;lon;timestamp;pressure;altitude;pressure_sealevel;temperature;humidity
73297;BME280;61524;50.938;11.396;2022-11-14T00:00:07;99409.69;;;0.30;100.00
73297;BME280;61524;50.938;11.396;2022-11-14T00:02:33;99423.94;;;0.35;100.00
73297;BME280;61524;50.938;11.396;2022-11-14T00:04:58;99419.56;;;0.28;100.00
73297;BME280;61524;50.938;11.396;2022-11-14T00:07:24;99421.81;;;0.31;100.00
73297;BME280;61524;50.938;11.396;2022-11-14T00:09:49;99413.94;;;0.31;100.00
73297;BME280;61524;50.938;11.396;2022-11-14T00:12:14;99411.50;;;0.21;100.00
73297;BME280;61524;50.938;11.396;2022-11-14T00:14:40;99419.06;;;0.24;100.00
73297;BME280;61524;50.938;11.396;2022-11-14T00:17:05;99431.38;;;0.23;100.00
73297;BME280;61524;50.938;11.396;2022-11-14T00:19:31;99428.94;;;0.14;100.00
73297;BME280;61524;50.938;11.396;2022-11-14T00:21:57;99425.00;;;0.10;100.00
73297;BME280;61524;50.938;11.396;2022-11-14T00:24:24;99420.44;;;0.12;100.00
73297;BME280;61524;50.938;11.396;2022-11-14T00:26:49;99423.75;;;-0.03;100.00
73297;BME280;61524;50.938;11.396;2022-11-14T00:29:15;99412.09;;;0.00;100.00
73297;BME280;61524;50.938;11.396;2022-11-14T00:31:41;99419.94;;;0.08;100.00
73297;BME280;61524;50.938;11.396;2022-11-14T00:34:07;99414.88;;;0.07;100.00
73297;BME280;61524;50.938;11.396;2022-11-14T00:36:32;99421.94;;;0.06;100.00
73297;BME280;61524;50.938;11.396;2022-11-14T00:38:58;99407.50;;;0.02;100.00
73297;BME280;61524;50.938;11.396;2022-11-14T00:41:23;99412.25;;;0.07;100.00
73297;BME280;61524;50.938;11.396;2022-11-14T00:43:49;99402.34;;;0.17;100.00
73297;BME280;61524;50.938;11.396;2022-11-14T00:46:15;99406.94;;;0.15;100.00
73297;BME280;61524;50.938;11.396;2022-11-14T00:48:41;99407.13;;;0.05;100.00
73297;BME280;61524;50.938;11.396;2022-11-14T00:51:06;99400.44;;;0.03;100.00
73297;BME280;61524;50.938;11.396;2022-11-14T00:53:31;99392.88;;;-0.01;100.00
73297;BME280;61524;50.938;11.396;2022-11-14T00:55:57;99400.25;;;0.04;100.00
73297;BME280;61524;50.938;11.396;2022-11-14T00:58:23;99379.28;;;-0.04;100.00
73297;BME280;61524;50.938;11.396;2022-11-14T01:00:48;99378.16;;;-0.10;100.00
73297;BME280;61524;50.938;11.396;2022-11-14T01:03:13;99376.59;;;0.04;100.00
73297;BME280;61524;50.938;11.396;2022-11-14T01:05:44;99378.78;;;0.01;100.00
73297;BME280;61524;50.938;11.396;2022-11-14T01:08:10;99378.25;;;0.05;100.00
73297;BME280;61524;50.938;11.396;2022-11-14T01:10:44;99378.59;;;0.02;100.00
73297;BME280;61524;50.938;11.396;2022-11-14T01:13:10;99379.91;;;-0.02;100.00
73297;BME280;61524;50.938;11.396;2022-11-14T01:15:41;99371.03;;;-0.01;100.00
73297;BME280;61524;50.938;11.396;2022-11-14T01:18:09;99365.16;;;-0.03;100.00
73297;BME280;61524;50.938;11.396;2022-11-14T01:20:40;99366.78;;;-0.02;100.00
73297;BME280;61524;50.938;11.396;2022-11-14T01:23:07;99368.13;;;-0.06;100.00
73297;BME280;61524;50.938;11.396;2022-11-14T01:25:34;99356.97;;;-0.08;100.00
73297;BME280;61524;50.938;11.396;2022-11-14T01:28:00;99354.03;;;-0.13;100.00
73297;BME280;61524;50.938;11.396;2022-11-14T01:30:26;99358.34;;;-0.20;100.00
73297;BME280;61524;50.938;11.396;2022-11-14T01:32:51;99351.47;;;-0.30;100.00
73297;BME280;61524;50.938;11.396;2022-11-14T01:35:16;99346.53;;;-0.33;100.00
73297;BME280;61524;50.938;11.396;2022-11-14T01:37:42;99356.56;;;-0.36;100.00
73297;BME280;61524;50.938;11.396;2022-11-14T01:40:08;99336.25;;;-0.42;100.00
73297;BME280;61524;50.938;11.396;2022-11-14T01:42:33;99336.91;;;-0.40;100.00
73297;BME280;61524;50.938;11.396;2022-11-14T01:44:59;99336.72;;;-0.39;100.00
73297;BME280;61524;50.938;11.396;2022-11-14T01:47:27;99342.97;;;-0.40;100.00
73297;BME280;61524;50.938;11.396;2022-11-14T01:49:57;99323.28;;;-0.44;100.00
73297;BME280;61524;50.938;11.396;2022-11-14T01:52:38;99307.94;;;-0.63;100.00
73297;BME280;61524;50.938;11.396;2022-11-14T01:55:07;99314.63;;;-0.52;100.00
73297;BME280;61524;50.938;11.396;2022-11-14T01:57:40;99313.31;;;-0.57;100.00
73297;BME280;61524;50.938;11.396;2022-11-14T02:00:10;99312.34;;;-0.56;100.00
73297;BME280;61524;50.938;11.396;2022-11-14T02:02:37;99315.13;;;-0.57;100.00
73297;BME280;61524;50.938;11.396;2022-11-14T02:05:05;99314.50;;;-0.59;100.00
73297;BME280;61524;50.938;11.396;2022-11-14T02:07:33;99312.50;;;-0.65;100.00
73297;BME280;61524;50.938;11.396;2022-11-14T02:10:04;99305.31;;;-0.63;100.00
73297;BME280;61524;50.938;11.396;2022-11-14T02:12:31;99318.44;;;-0.63;100.00
73297;BME280;61524;50.938;11.396;2022-11-14T02:14:57;99302.25;;;-0.75;100.00
73297;BME280;61524;50.938;11.396;2022-11-14T02:17:23;99313.38;;;-0.73;100.00
73297;BME280;61524;50.938;11.396;2022-11-14T02:19:52;99299.44;;;-0.73;100.00
73297;BME280;61524;50.938;11.396;2022-11-14T02:22:18;99297.63;;;-0.73;100.00
73297;BME280;61524;50.938;11.396;2022-11-14T02:24:44;99293.38;;;-0.82;100.00
73297;BME280;61524;50.938;11.396;2022-11-14T02:27:10;99296.34;;;-0.93;100.00
73297;BME280;61524;50.938;11.396;2022-11-14T02:29:37;99292.06;;;-0.86;100.00
73297;BME280;61524;50.938;11.396;2022-11-14T02:32:02;99303.06;;;-0.99;100.00
73297;BME280;61524;50.938;11.396;2022-11-14T02:34:28;99303.72;;;-1.13;100.00
73297;BME280;61524;50.938;11.396;2022-11-14T02:36:55;99307.19;;;-1.13;100.00
73297;BME280;61524;50.938;11.396;2022-11-14T02:39:21;99302.59;;;-1.11;100.00
73297;BME280;61524;50.938;11.396;2022-11-14T02:41:47;99298.34;;;-1.20;100.00
73297;BME280;61524;50.938;11.396;2022-11-14T02:44:13;99284.25;;;-1.19;100.00
73297;BME280;61524;50.938;11.396;2022-11-14T02:46:39;99291.63;;;-1.22;100.00
73297;BME280;61524;50.938;11.396;2022-11-14T02:49:04;99288.34;;;-1.24;100.00
73297;BME280;61524;50.938;11.396;2022-11-14T02:51:30;99286.22;;;-1.21;100.00
73297;BME280;61524;50.938;11.396;2022-11-14T02:53:55;99269.03;;;-1.23;100.00
73297;BME280;61524;50.938;11.396;2022-11-14T02:56:20;99266.09;;;-1.28;100.00
73297;BME280;61524;50.938;11.396;2022-11-14T02:58:46;99270.50;;;-1.37;100.00
73297;BME280;61524;50.938;11.396;2022-11-14T03:01:11;99277.72;;;-1.31;100.00
73297;BME280;61524;50.938;11.396;2022-11-14T03:03:37;99273.97;;;-1.45;100.00
73297;BME280;61524;50.938;11.396;2022-11-14T03:06:03;99274.09;;;-1.46;100.00
73297;BME280;61524;50.938;11.396;2022-11-14T03:08:29;99269.66;;;-1.29;100.00
73297;BME280;61524;50.938;11.396;2022-11-14T03:10:55;99281.97;;;-1.30;100.00
73297;BME280;61524;50.938;11.396;2022-11-14T03:13:21;99261.47;;;-1.35;100.00
73297;BME280;61524;50.938;11.396;2022-11-14T03:15:46;99261.50;;;-1.43;100.00
73297;BME280;61524;50.938;11.396;2022-11-14T03:18:12;99270.50;;;-1.53;100.00
73297;BME280;61524;50.938;11.396;2022-11-14T03:20:38;99262.00;;;-1.55;100.00
73297;BME280;61524;50.938;11.396;2022-11-14T03:23:03;99259.03;;;-1.52;100.00
73297;BME280;61524;50.938;11.396;2022-11-14T03:25:29;99258.56;;;-1.48;100.00
73297;BME280;61524;50.938;11.396;2022-11-14T03:27:55;99255.09;;;-1.40;100.00
73297;BME280;61524;50.938;11.396;2022-11-14T03:30:20;99262.16;;;-1.41;100.00
73297;BME280;61524;50.938;11.396;2022-11-14T03:32:46;99260.34;;;-1.56;100.00
73297;BME280;61524;50.938;11.396;2022-11-14T03:35:11;99273.28;;;-1.55;100.00
73297;BME280;61524;50.938;11.396;2022-11-14T03:37:36;99269.03;;;-1.56;100.00
73297;BME280;61524;50.938;11.396;2022-11-14T03:40:02;99272.13;;;-1.52;100.00
73297;BME280;61524;50.938;11.396;2022-11-14T03:42:32;99279.03;;;-1.43;100.00
73297;BME280;61524;50.938;11.396;2022-11-14T03:44:57;99274.09;;;-1.46;100.00
73297;BME280;61524;50.938;11.396;2022-11-14T03:47:23;99273.94;;;-1.53;100.00
73297;BME280;61524;50.938;11.396;2022-11-14T03:49:48;99258.41;;;-1.54;100.00
73297;BME280;61524;50.938;11.396;2022-11-14T03:52:13;99260.34;;;-1.56;100.00
73297;BME280;61524;50.938;11.396;2022-11-14T03:54:39;99254.28;;;-1.65;100.00
73297;BME280;61524;50.938;11.396;2022-11-14T03:57:04;99248.88;;;-1.64;100.00
73297;BME280;61524;50.938;11.396;2022-11-14T03:59:30;99256.75;;;-1.64;100.00
73297;BME280;61524;50.938;11.396;2022-11-14T04:01:55;99243.16;;;-1.59;100.00
73297;BME280;61524;50.938;11.396;2022-11-14T04:04:21;99251.50;;;-1.64;100.00
73297;BME280;61524;50.938;11.396;2022-11-14T04:06:46;99234.00;;;-1.71;100.00
73297;BME280;61524;50.938;11.396;2022-11-14T04:09:11;99239.06;;;-1.70;100.00
73297;BME280;61524;50.938;11.396;2022-11-14T04:11:37;99244.31;;;-1.70;100.00
73297;BME280;61524;50.938;11.396;2022-11-14T04:14:02;99240.53;;;-1.67;100.00
73297;BME280;61524;50.938;11.396;2022-11-14T04:16:28;99240.03;;;-1.63;100.00
73297;BME280;61524;50.938;11.396;2022-11-14T04:18:53;99234.66;;;-1.69;100.00
73297;BME280;61524;50.938;11.396;2022-11-14T04:21:19;99229.06;;;-1.74;100.00
73297;BME280;61524;50.938;11.396;2022-11-14T04:23:44;99210.75;;;-1.82;100.00
73297;BME280;61524;50.938;11.396;2022-11-14T04:26:10;99211.91;;;-1.77;100.00
73297;BME280;61524;50.938;11.396;2022-11-14T04:28:35;99212.03;;;-1.78;100.00
73297;BME280;61524;50.938;11.396;2022-11-14T04:31:01;99204.38;;;-1.80;100.00
73297;BME280;61524;50.938;11.396;2022-11-14T04:33:26;99202.06;;;-1.83;100.00
73297;BME280;61524;50.938;11.396;2022-11-14T04:35:52;99203.38;;;-1.79;100.00
73297;BME280;61524;50.938;11.396;2022-11-14T04:38:17;99207.28;;;-1.83;100.00
73297;BME280;61524;50.938;11.396;2022-11-14T04:40:50;99196.66;;;-1.73;100.00
73297;BME280;61524;50.938;11.396;2022-11-14T04:43:16;99199.94;;;-1.79;100.00
73297;BME280;61524;50.938;11.396;2022-11-14T04:45:41;99183.75;;;-1.91;100.00
73297;BME280;61524;50.938;11.396;2022-11-14T04:48:07;99187.50;;;-2.02;100.00
73297;BME280;61524;50.938;11.396;2022-11-14T04:50:32;99177.50;;;-2.06;100.00
73297;BME280;61524;50.938;11.396;2022-11-14T04:52:58;99177.16;;;-2.12;100.00
73297;BME280;61524;50.938;11.396;2022-11-14T04:55:23;99177.00;;;-2.10;100.00
73297;BME280;61524;50.938;11.396;2022-11-14T04:57:53;99169.31;;;-2.12;100.00
73297;BME280;61524;50.938;11.396;2022-11-14T05:00:19;99170.47;;;-2.14;100.00
73297;BME280;61524;50.938;11.396;2022-11-14T05:02:44;99182.25;;;-2.10;100.00
73297;BME280;61524;50.938;11.396;2022-11-14T05:05:10;99164.09;;;-2.12;100.00
73297;BME280;61524;50.938;11.396;2022-11-14T05:07:36;99158.69;;;-2.18;100.00
73297;BME280;61524;50.938;11.396;2022-11-14T05:10:01;99174.56;;;-2.20;100.00
73297;BME280;61524;50.938;11.396;2022-11-14T05:12:27;99167.19;;;-2.24;100.00
73297;BME280;61524;50.938;11.396;2022-11-14T05:14:52;99163.59;;;-2.23;100.00
73297;BME280;61524;50.938;11.396;2022-11-14T05:17:18;99170.63;;;-2.24;100.00
73297;BME280;61524;50.938;11.396;2022-11-14T05:19:43;99172.91;;;-2.29;100.00
73297;BME280;61524;50.938;11.396;2022-11-14T05:22:08;99174.03;;;-2.31;100.00
73297;BME280;61524;50.938;11.396;2022-11-14T05:24:34;99183.84;;;-2.33;100.00
73297;BME280;61524;50.938;11.396;2022-11-14T05:26:59;99174.84;;;-2.39;100.00
73297;BME280;61524;50.938;11.396;2022-11-14T05:29:25;99174.84;;;-2.39;100.00
73297;BME280;61524;50.938;11.396;2022-11-14T05:31:50;99169.44;;;-2.46;100.00
73297;BME280;61524;50.938;11.396;2022-11-14T05:34:15;99163.53;;;-2.48;100.00
73297;BME280;61524;50.938;11.396;2022-11-14T05:36:41;99150.63;;;-2.49;100.00
73297;BME280;61524;50.938;11.396;2022-11-14T05:39:06;99139.34;;;-2.50;100.00
73297;BME280;61524;50.938;11.396;2022-11-14T05:41:32;99150.44;;;-2.48;100.00
73297;BME280;61524;50.938;11.396;2022-11-14T05:43:57;99151.09;;;-2.54;100.00
73297;BME280;61524;50.938;11.396;2022-11-14T05:46:22;99147.00;;;-2.56;100.00
73297;BME280;61524;50.938;11.396;2022-11-14T05:48:48;99134.94;;;-2.57;100.00
73297;BME280;61524;50.938;11.396;2022-11-14T05:51:13;99142.28;;;-2.53;100.00
73297;BME280;61524;50.938;11.396;2022-11-14T05:53:39;99146.84;;;-2.55;100.00
73297;BME280;61524;50.938;11.396;2022-11-14T05:56:08;99133.13;;;-2.57;100.00
73297;BME280;61524;50.938;11.396;2022-11-14T05:58:34;99141.09;;;-2.58;100.00
73297;BME280;61524;50.938;11.396;2022-11-14T06:01:05;99146.50;;;-2.60;100.00
73297;BME280;61524;50.938;11.396;2022-11-14T06:03:32;99130.94;;;-2.70;100.00
73297;BME280;61524;50.938;11.396;2022-11-14T06:06:00;99143.06;;;-2.60;100.00
73297;BME280;61524;50.938;11.396;2022-11-14T06:08:27;99137.34;;;-2.64;100.00
73297;BME280;61524;50.938;11.396;2022-11-14T06:10:53;99127.53;;;-2.70;100.00
73297;BME280;61524;50.938;11.396;2022-11-14T06:13:19;99144.19;;;-2.71;100.00
73297;BME280;61524;50.938;11.396;2022-11-14T06:15:44;99136.19;;;-2.70;100.00
73297;BME280;61524;50.938;11.396;2022-11-14T06:18:09;99142.72;;;-2.74;100.00
73297;BME280;61524;50.938;11.396;2022-11-14T06:20:35;99153.31;;;-2.75;100.00
73297;BME280;61524;50.938;11.396;2022-11-14T06:23:00;99142.72;;;-2.74;100.00
73297;BME280;61524;50.938;11.396;2022-11-14T06:25:26;99143.03;;;-2.77;100.00
73297;BME280;61524;50.938;11.396;2022-11-14T06:27:51;99155.94;;;-2.75;100.00
73297;BME280;61524;50.938;11.396;2022-11-14T06:30:17;99146.47;;;-2.76;100.00
73297;BME280;61524;50.938;11.396;2022-11-14T06:32:42;99151.53;;;-2.75;100.00
73297;BME280;61524;50.938;11.396;2022-11-14T06:35:08;99152.03;;;-2.71;100.00
73297;BME280;61524;50.938;11.396;2022-11-14T06:37:35;99146.16;;;-2.65;100.00
73297;BME280;61524;50.938;11.396;2022-11-14T06:40:01;99148.78;;;-2.73;100.00
73297;BME280;61524;50.938;11.396;2022-11-14T06:42:27;99161.84;;;-2.65;100.00
73297;BME280;61524;50.938;11.396;2022-11-14T06:44:52;99159.09;;;-2.63;100.00
73297;BME280;61524;50.938;11.396;2022-11-14T06:47:18;99170.38;;;-2.63;100.00
73297;BME280;61524;50.938;11.396;2022-11-14T06:49:43;99168.41;;;-2.61;100.00
73297;BME280;61524;50.938;11.396;2022-11-14T06:52:08;99173.00;;;-2.55;100.00
73297;BME280;61524;50.938;11.396;2022-11-14T06:54:34;99175.44;;;-2.53;100.00
73297;BME280;61524;50.938;11.396;2022-11-14T06:56:59;99165.84;;;-2.53;100.00
73297;BME280;61524;50.938;11.396;2022-11-14T06:59:25;99172.06;;;-2.46;100.00
73297;BME280;61524;50.938;11.396;2022-11-14T07:01:50;99164.72;;;-2.42;100.00
73297;BME280;61524;50.938;11.396;2022-11-14T07:04:16;99163.88;;;-2.43;100.00
73297;BME280;61524;50.938;11.396;2022-11-14T07:06:41;99165.22;;;-2.30;100.00
73297;BME280;61524;50.938;11.396;2022-11-14T07:09:09;99157.19;;;-2.29;100.00
73297;BME280;61524;50.938;11.396;2022-11-14T07:11:34;99160.97;;;-2.23;100.00
73297;BME280;61524;50.938;11.396;2022-11-14T07:14:01;99164.91;;;-2.19;100.00
73297;BME280;61524;50.938;11.396;2022-11-14T07:16:29;99161.81;;;-2.15;100.00
73297;BME280;61524;50.938;11.396;2022-11-14T07:18:55;99141.50;;;-2.21;100.00
73297;BME280;61524;50.938;11.396;2022-11-14T07:21:21;99142.66;;;-2.23;100.00
73297;BME280;61524;50.938;11.396;2022-11-14T07:23:47;99146.25;;;-2.16;100.00
73297;BME280;61524;50.938;11.396;2022-11-14T07:26:12;99147.75;;;-2.14;100.00
73297;BME280;61524;50.938;11.396;2022-11-14T07:28:40;99154.44;;;-2.03;100.00
73297;BME280;61524;50.938;11.396;2022-11-14T07:31:17;99148.88;;;-1.92;100.00
73297;BME280;61524;50.938;11.396;2022-11-14T07:33:43;99141.69;;;-1.81;100.00
73297;BME280;61524;50.938;11.396;2022-11-14T07:36:10;99146.91;;;-1.73;100.00
73297;BME280;61524;50.938;11.396;2022-11-14T07:38:37;99148.38;;;-1.63;100.00
73297;BME280;61524;50.938;11.396;2022-11-14T07:41:05;99148.88;;;-1.59;100.00
73297;BME280;61524;50.938;11.396;2022-11-14T07:43:31;99145.41;;;-1.51;100.00
73297;BME280;61524;50.938;11.396;2022-11-14T07:46:04;99156.03;;;-1.28;100.00
73297;BME280;61524;50.938;11.396;2022-11-14T07:48:29;99169.72;;;-1.10;100.00
73297;BME280;61524;50.938;11.396;2022-11-14T07:51:04;99145.44;;;-1.04;100.00
73297;BME280;61524;50.938;11.396;2022-11-14T07:53:30;99161.78;;;-0.86;100.00
73297;BME280;61524;50.938;11.396;2022-11-14T07:56:01;99159.13;;;-0.77;100.00
73297;BME280;61524;50.938;11.396;2022-11-14T07:58:28;99157.59;;;-0.64;100.00
73297;BME280;61524;50.938;11.396;2022-11-14T08:00:53;99164.59;;;-0.56;100.00
73297;BME280;61524;50.938;11.396;2022-11-14T08:03:19;99156.94;;;-0.35;100.00
73297;BME280;61524;50.938;11.396;2022-11-14T08:05:44;99154.72;;;-0.23;100.00
73297;BME280;61524;50.938;11.396;2022-11-14T08:08:10;99144.63;;;0.12;100.00
73297;BME280;61524;50.938;11.396;2022-11-14T08:10:35;99146.59;;;0.33;100.00
73297;BME280;61524;50.938;11.396;2022-11-14T08:13:03;99131.56;;;0.56;100.00
73297;BME280;61524;50.938;11.396;2022-11-14T08:15:29;99135.66;;;0.73;100.00
73297;BME280;61524;50.938;11.396;2022-11-14T08:17:59;99120.84;;;1.02;100.00
73297;BME280;61524;50.938;11.396;2022-11-14T08:20:25;99115.84;;;1.22;100.00
73297;BME280;61524;50.938;11.396;2022-11-14T08:23:01;99127.94;;;1.52;100.00
73297;BME280;61524;50.938;11.396;2022-11-14T08:25:27;99120.00;;;1.67;100.00
73297;BME280;61524;50.938;11.396;2022-11-14T08:27:52;99126.47;;;1.86;100.00
73297;BME280;61524;50.938;11.396;2022-11-14T08:30:18;99112.97;;;1.96;100.00
73297;BME280;61524;50.938;11.396;2022-11-14T08:32:43;99111.31;;;2.38;100.00
73297;BME280;61524;50.938;11.396;2022-11-14T08:35:09;99107.53;;;2.88;100.00
73297;BME280;61524;50.938;11.396;2022-11-14T08:37:34;99111.34;;;3.20;100.00
73297;BME280;61524;50.938;11.396;2022-11-14T08:40:00;99098.44;;;3.45;100.00
73297;BME280;61524;50.938;11.396;2022-11-14T08:42:26;99102.16;;;3.77;100.00
73297;BME280;61524;50.938;11.396;2022-11-14T08:44:51;99102.22;;;4.04;100.00
73297;BME280;61524;50.938;11.396;2022-11-14T08:47:16;99093.25;;;4.31;100.00
73297;BME280;61524;50.938;11.396;2022-11-14T08:49:42;99107.88;;;4.47;100.00
73297;BME280;61524;50.938;11.396;2022-11-14T08:52:07;99104.81;;;4.63;100.00
73297;BME280;61524;50.938;11.396;2022-11-14T08:54:33;99094.41;;;4.75;100.00
73297;BME280;61524;50.938;11.396;2022-11-14T08:56:58;99113.69;;;4.89;100.00
73297;BME280;61524;50.938;11.396;2022-11-14T08:59:23;99100.03;;;4.98;100.00
73297;BME280;61524;50.938;11.396;2022-11-14T09:01:49;99110.78;;;5.10;100.00
73297;BME280;61524;50.938;11.396;2022-11-14T09:04:14;99091.66;;;5.08;100.00
73297;BME280;61524;50.938;11.396;2022-11-14T09:06:40;99094.41;;;5.26;100.00
73297;BME280;61524;50.938;11.396;2022-11-14T09:09:05;99097.81;;;5.40;100.00
73297;BME280;61524;50.938;11.396;2022-11-14T09:11:31;99103.09;;;5.47;99.61
73297;BME280;61524;50.938;11.396;2022-11-14T09:13:56;99095.72;;;5.56;99.80
73297;BME280;61524;50.938;11.396;2022-11-14T09:16:22;99089.72;;;5.67;100.00
73297;BME280;61524;50.938;11.396;2022-11-14T09:18:47;99084.88;;;5.89;99.24
73297;BME280;61524;50.938;11.396;2022-11-14T09:21:12;99086.47;;;5.96;97.65
73297;BME280;61524;50.938;11.396;2022-11-14T09:23:38;99084.56;;;6.10;96.79
73297;BME280;61524;50.938;11.396;2022-11-14T09:26:08;99079.03;;;6.37;95.59
73297;BME280;61524;50.938;11.396;2022-11-14T09:28:34;99072.84;;;6.43;94.73
73297;BME280;61524;50.938;11.396;2022-11-14T09:31:02;99060.00;;;6.40;94.69
73297;BME280;61524;50.938;11.396;2022-11-14T09:33:27;99066.06;;;6.47;93.96
73297;BME280;61524;50.938;11.396;2022-11-14T09:36:01;99076.19;;;6.56;93.18
73297;BME280;61524;50.938;11.396;2022-11-14T09:38:26;99087.53;;;6.64;93.47
73297;BME280;61524;50.938;11.396;2022-11-14T09:49:44;99077.66;;;7.07;91.43
73297;BME280;61524;50.938;11.396;2022-11-14T09:52:38;99076.00;;;7.25;91.23
73297;BME280;61524;50.938;11.396;2022-11-14T09:55:16;99084.84;;;7.37;91.62
73297;BME280;61524;50.938;11.396;2022-11-14T09:57:43;99091.03;;;7.49;90.47
73297;BME280;61524;50.938;11.396;2022-11-14T10:03:06;99083.13;;;7.73;88.88
73297;BME280;61524;50.938;11.396;2022-11-14T10:11:12;99059.94;;;7.92;88.48
73297;BME280;61524;50.938;11.396;2022-11-14T10:25:23;99046.91;;;8.25;87.89
73297;BME280;61524;50.938;11.396;2022-11-14T10:27:53;99051.53;;;8.30;88.33
73297;BME280;61524;50.938;11.396;2022-11-14T10:30:33;99034.78;;;8.41;87.73
73297;BME280;61524;50.938;11.396;2022-11-14T10:35:38;99048.75;;;8.60;86.25
73297;BME280;61524;50.938;11.396;2022-11-14T10:40:44;99053.63;;;8.75;85.80
73297;BME280;61524;50.938;11.396;2022-11-14T10:43:34;99050.47;;;8.89;85.74
73297;BME280;61524;50.938;11.396;2022-11-14T10:46:29;99051.28;;;8.90;85.80
73297;BME280;61524;50.938;11.396;2022-11-14T10:48:58;99050.78;;;8.93;85.65
73297;BME280;61524;50.938;11.396;2022-11-14T10:54:05;99052.06;;;9.02;84.53
73297;BME280;61524;50.938;11.396;2022-11-14T10:56:55;99056.31;;;9.15;85.09
73297;BME280;61524;50.938;11.396;2022-11-14T10:59:21;99042.84;;;9.22;84.00
73297;BME280;61524;50.938;11.396;2022-11-14T11:04:30;99044.75;;;9.38;85.66
73297;BME280;61524;50.938;11.396;2022-11-14T11:09:32;99041.31;;;9.54;83.56
73297;BME280;61524;50.938;11.396;2022-11-14T11:12:37;99026.31;;;9.65;83.87
73297;BME280;61524;50.938;11.396;2022-11-14T11:15:20;99033.09;;;9.72;83.54
73297;BME280;61524;50.938;11.396;2022-11-14T11:18:01;99026.97;;;9.89;83.03
73297;BME280;61524;50.938;11.396;2022-11-14T11:20:33;99027.53;;;9.91;83.26
73297;BME280;61524;50.938;11.396;2022-11-14T11:23:17;99026.31;;;9.98;82.18
73297;BME280;61524;50.938;11.396;2022-11-14T11:25:43;99035.13;;;9.99;81.24
73297;BME280;61524;50.938;11.396;2022-11-14T11:28:16;99023.63;;;10.15;82.44
73297;BME280;61524;50.938;11.396;2022-11-14T11:31:05;99026.00;;;10.12;80.64
73297;BME280;61524;50.938;11.396;2022-11-14T11:33:34;99031.72;;;10.20;80.88
73297;BME280;61524;50.938;11.396;2022-11-14T11:36:05;99038.69;;;10.38;80.64
73297;BME280;61524;50.938;11.396;2022-11-14T11:38:32;99040.06;;;10.41;80.49
73297;BME280;61524;50.938;11.396;2022-11-14T11:41:23;99036.41;;;10.47;80.45
73297;BME280;61524;50.938;11.396;2022-11-14T11:43:59;99041.50;;;10.48;79.43
73297;BME280;61524;50.938;11.396;2022-11-14T11:51:44;99036.75;;;10.50;79.29
73297;BME280;61524;50.938;11.396;2022-11-14T11:54:19;99030.09;;;10.53;79.32
73297;BME280;61524;50.938;11.396;2022-11-14T11:56:50;99021.78;;;10.49;79.26
73297;BME280;61524;50.938;11.396;2022-11-14T12:02:00;99018.34;;;10.76;78.74
73297;BME280;61524;50.938;11.396;2022-11-14T12:04:29;99029.22;;;10.69;79.97
73297;BME280;61524;50.938;11.396;2022-11-14T12:07:03;99023.16;;;10.74;79.34
73297;BME280;61524;50.938;11.396;2022-11-14T12:09:38;99016.81;;;10.80;79.78
73297;BME280;61524;50.938;11.396;2022-11-14T12:12:10;99017.25;;;10.94;78.58
73297;BME280;61524;50.938;11.396;2022-11-14T12:14:59;99010.78;;;11.12;79.17
73297;BME280;61524;50.938;11.396;2022-11-14T12:20:35;99011.56;;;11.12;77.96
73297;BME280;61524;50.938;11.396;2022-11-14T12:28:07;99017.50;;;11.14;77.21
73297;BME280;61524;50.938;11.396;2022-11-14T12:30:39;99011.88;;;11.16;77.53
73297;BME280;61524;50.938;11.396;2022-11-14T12:33:21;99005.03;;;11.25;78.37
73297;BME280;61524;50.938;11.396;2022-11-14T12:35:57;99007.34;;;11.16;76.90
73297;BME280;61524;50.938;11.396;2022-11-14T12:38:30;99002.31;;;11.20;77.30
73297;BME280;61524;50.938;11.396;2022-11-14T12:40:57;99002.00;;;11.16;77.10
73297;BME280;61524;50.938;11.396;2022-11-14T12:50:50;98983.03;;;11.18;78.52
73297;BME280;61524;50.938;11.396;2022-11-14T13:11:52;98974.34;;;11.33;78.08
73297;BME280;61524;50.938;11.396;2022-11-14T13:14:50;98978.53;;;11.23;78.22
73297;BME280;61524;50.938;11.396;2022-11-14T13:17:35;98974.41;;;11.11;78.94
73297;BME280;61524;50.938;11.396;2022-11-14T13:20:33;98966.50;;;11.21;78.75
73297;BME280;61524;50.938;11.396;2022-11-14T13:31:06;98961.97;;;11.53;77.00
73297;BME280;61524;50.938;11.396;2022-11-14T13:33:47;98966.03;;;11.61;76.71
73297;BME280;61524;50.938;11.396;2022-11-14T13:49:57;98947.63;;;11.65;76.08
73297;BME280;61524;50.938;11.396;2022-11-14T13:52:27;98949.47;;;11.64;75.68
73297;BME280;61524;50.938;11.396;2022-11-14T13:54:55;98965.31;;;11.71;76.38
73297;BME280;61524;50.938;11.396;2022-11-14T14:00:13;98947.75;;;11.48;76.07
73297;BME280;61524;50.938;11.396;2022-11-14T14:19:17;98955.88;;;11.04;78.35
73297;BME280;61524;50.938;11.396;2022-11-14T14:21:59;98944.03;;;10.95;79.15
73297;BME280;61524;50.938;11.396;2022-11-14T14:24:45;98946.63;;;10.90;78.80
73297;BME280;61524;50.938;11.396;2022-11-14T14:32:25;98948.78;;;10.66;79.84
73297;BME280;61524;50.938;11.396;2022-11-14T14:34:51;98948.28;;;10.47;80.12
73297;BME280;61524;50.938;11.396;2022-11-14T14:37:26;98948.13;;;10.37;80.66
73297;BME280;61524;50.938;11.396;2022-11-14T14:40:03;98951.63;;;10.20;81.31
73297;BME280;61524;50.938;11.396;2022-11-14T14:42:37;98951.56;;;10.15;81.74
73297;BME280;61524;50.938;11.396;2022-11-14T14:45:03;98953.63;;;9.91;82.24
73297;BME280;61524;50.938;11.396;2022-11-14T14:47:37;98934.88;;;9.69;83.81
73297;BME280;61524;50.938;11.396;2022-11-14T14:50:26;98944.00;;;9.57;83.97
73297;BME280;61524;50.938;11.396;2022-11-14T14:52:58;98934.56;;;9.49;85.01
73297;BME280;61524;50.938;11.396;2022-11-14T14:55:26;98937.13;;;9.44;85.19
73297;BME280;61524;50.938;11.396;2022-11-14T14:57:52;98930.47;;;9.30;85.13
73297;BME280;61524;50.938;11.396;2022-11-14T15:00:21;98939.09;;;9.20;86.09